• Join FlightAware (Why Join?)
  • Login
  • US Flag 
 
03:58AM EST


 

Airport Tracker/Info


-or-


 

Live Flight TrackerFlight Track Log ✈ SWA1844 ✈ 29-Apr-2013 ✈ KPHX - KSEA

Flight Track Log - Related Links

Times and Time Zones

All times are in EDT time to prevent confusion due to time zone crossing. See the SWA1844 flight status page for this flight to view local times or setup timezone preferences in your user account.

Time Position Orientation Groundspeed Altitude Reporting Facility
EDT Latitude Longitude Course Direction KTS MPH feet Rate Location/Type
01:02AM 33.4333 -112.1000 270° West 196 226 4,600  Level Phoenix TRACON
01:03AM 33.4453 -112.1667 282° West 224 258 7,500 2,700 Climbing Albuquerque Center
01:04AM 33.5181 -112.1561 North 280 322 10,000 2,460 Climbing Albuquerque Center
01:05AM 33.5969 -112.1092 26° Northeast 331 381 12,500 2,760 Climbing Albuquerque Center
01:06AM 33.6794 -112.0406 35° Northeast 358 412 15,600 3,120 Climbing Albuquerque Center
01:07AM 33.7661 -111.9681 35° Northeast 376 433 18,800 3,000 Climbing Albuquerque Center
01:08AM 33.8625 -111.8875 35° Northeast 394 453 21,700 2,700 Climbing Albuquerque Center
01:09AM 33.9633 -111.8256 27° Northeast 413 475 24,300 2,400 Climbing Albuquerque Center
01:10AM 34.0786 -111.8436 353° North 419 482 26,600 2,040 Climbing Albuquerque Center
01:11AM 34.1958 -111.8606 353° North 425 489 28,500 1,740 Climbing Albuquerque Center
01:12AM 34.3200 -111.8808 352° North 441 507 30,200 1,740 Climbing Albuquerque Center
01:13AM 34.4428 -111.9006 352° North 444 511 32,100 1,860 Climbing Albuquerque Center
01:14AM 34.5642 -111.9208 352° North 442 509 34,000 1,860 Climbing Albuquerque Center
01:15AM 34.6839 -111.9397 353° North 437 503 35,900 1,440 Climbing Albuquerque Center
01:16AM 34.7894 -111.9561 353° North 430 495 37,000 540 Climbing Albuquerque Center
01:17AM 34.9025 -111.9744 352° North 418 481 37,000 240 Level Albuquerque Center
01:18AM 35.0389 -111.9969 352° North 415 478 37,600 840 Climbing Albuquerque Center
01:19AM 35.1533 -112.0142 353° North 417 480 38,800 1,140 Climbing Albuquerque Center
01:20AM 35.2658 -112.0325 352° North 413 475 39,900 540 Climbing Albuquerque Center
01:21AM 35.3783 -112.0517 352° North 413 475 40,000  Climbing Albuquerque Center
01:22AM 35.4914 -112.0689 353° North 413 475 40,000  Level Albuquerque Center
01:23AM 35.6033 -112.0872 352° North 410 472 40,000  Level Albuquerque Center
01:23AM 35.6469 -112.0944 352° North 407 468 40,000  Level Los Angeles Center
01:24AM 35.7800 -112.1167 352° North 406 467 40,000  Level Los Angeles Center
01:25AM 35.8928 -112.1336 353° North 408 470 40,000  Level Los Angeles Center
01:27AM 36.0033 -112.1658 347° North 411 473 40,000  Level Los Angeles Center
01:28AM 36.1328 -112.2314 338° Northwest 421 484 40,000  Level Los Angeles Center
01:29AM 36.2664 -112.2961 339° North 420 483 40,000  Level Los Angeles Center
01:30AM 36.3950 -112.3617 338° Northwest 418 481 40,000  Level Los Angeles Center
01:31AM 36.5253 -112.4250 339° North 418 481 40,000  Level Los Angeles Center
01:32AM 36.6328 -112.4794 338° Northwest 418 481 40,000  Level Los Angeles Center
01:33AM 36.7325 -112.5514 330° Northwest 414 476 40,000  Level Los Angeles Center
01:34AM 36.8294 -112.6281 328° Northwest 412 474 40,000  Level Los Angeles Center
01:35AM 36.9269 -112.7036 328° Northwest 412 474 40,000  Level Los Angeles Center
01:36AM 37.0233 -112.7794 328° Northwest 410 472 40,000  Level Los Angeles Center
01:37AM 37.1189 -112.8567 327° Northwest 408 470 40,000  Level Los Angeles Center
01:38AM 37.1950 -112.9178 327° Northwest 407 468 40,000  Level Salt Lake Center
01:39AM 37.2917 -112.9956 327° Northwest 408 470 40,000  Level Salt Lake Center
01:40AM 37.3892 -113.0731 328° Northwest 410 472 40,000  Level Salt Lake Center
01:41AM 37.4847 -113.1494 328° Northwest 406 467 40,000  Level Salt Lake Center
01:42AM 37.5792 -113.2264 327° Northwest 400 460 40,000  Level Salt Lake Center
01:43AM 37.6742 -113.3031 327° Northwest 402 463 40,000  Level Salt Lake Center
01:44AM 37.7678 -113.3781 328° Northwest 397 457 40,000  Level Salt Lake Center
01:45AM 37.8619 -113.4547 327° Northwest 401 461 40,000  Level Salt Lake Center
01:46AM 37.9569 -113.5322 327° Northwest 404 465 40,000  Level Salt Lake Center
01:47AM 38.0528 -113.6114 327° Northwest 409 471 40,000  Level Salt Lake Center
01:48AM 38.1475 -113.6892 327° Northwest 408 470 40,000  Level Salt Lake Center
01:49AM 38.2436 -113.7650 328° Northwest 405 466 40,000  Level Salt Lake Center
01:50AM 38.3397 -113.8456 327° Northwest 410 472 40,000  Level Salt Lake Center
01:51AM 38.4358 -113.9233 328° Northwest 411 473 40,000  Level Salt Lake Center
01:52AM 38.5314 -114.0039 327° Northwest 410 472 40,000  Level Salt Lake Center
01:53AM 38.6264 -114.0831 327° Northwest 411 473 40,000  Level Salt Lake Center
01:54AM 38.7208 -114.1603 327° Northwest 404 465 40,000  Level Salt Lake Center
01:56AM 38.8394 -114.2589 327° Northwest  Level FlightAware Approximate
01:56AM 38.9042 -114.3144 327° Northwest 392 451 40,000  Level Salt Lake Center
01:57AM 38.9958 -114.3928 326° Northwest 395 455 40,000  Level Salt Lake Center
01:58AM 39.0889 -114.4717 327° Northwest 399 459 40,000  Level Salt Lake Center
01:59AM 39.1928 -114.5617 326° Northwest 396 456 40,000  Level Salt Lake Center
02:00AM 39.2797 -114.6372 326° Northwest 393 452 40,000  Level Salt Lake Center
02:01AM 39.3672 -114.7125 326° Northwest 395 455 40,000  Level Salt Lake Center
02:02AM 39.4728 -114.7969 328° Northwest 399 459 40,000  Level Salt Lake Center
02:03AM 39.5594 -114.8719 326° Northwest 393 452 40,000  Level Salt Lake Center
02:05AM 39.6666 -114.9733 324° Northwest  Level FlightAware Approximate
02:06AM 39.8306 -115.1069 324° Northwest 390 449 40,000  Level Salt Lake Center
02:07AM 39.9156 -115.1808 326° Northwest 385 443 40,000  Level Salt Lake Center
02:08AM 40.0153 -115.2706 325° Northwest 390 449 40,000  Level Salt Lake Center
02:09AM 40.1025 -115.3456 327° Northwest 391 450 40,000  Level Salt Lake Center
02:10AM 40.1894 -115.4219 326° Northwest 393 452 40,000  Level Salt Lake Center
02:11AM 40.2917 -115.5114 326° Northwest 395 455 40,000  Level Salt Lake Center
02:12AM 40.3800 -115.5900 326° Northwest 398 458 40,000  Level Salt Lake Center
02:13AM 40.4669 -115.6678 326° Northwest 398 458 40,000  Level Salt Lake Center
02:14AM 40.5672 -115.7581 326° Northwest 395 455 40,000  Level Salt Lake Center
02:15AM 40.6536 -115.8361 326° Northwest 396 456 40,000  Level Salt Lake Center
02:16AM 40.7425 -115.9150 326° Northwest 401 461 40,000  Level Salt Lake Center
02:17AM 40.8450 -116.0061 326° Northwest 401 461 40,000  Level Salt Lake Center
02:18AM 40.9303 -116.0825 326° Northwest 393 452 40,000  Level Salt Lake Center
02:19AM 41.0150 -116.1600 325° Northwest 390 449 40,000  Level Salt Lake Center
02:20AM 41.1144 -116.2522 325° Northwest 391 450 40,000  Level Salt Lake Center
02:21AM 41.1994 -116.3308 325° Northwest 394 453 40,000  Level Salt Lake Center
02:22AM 41.2833 -116.4075 326° Northwest 386 444 40,000  Level Salt Lake Center
02:23AM 41.3678 -116.4839 326° Northwest 384 442 40,000  Level Salt Lake Center
02:24AM 41.4656 -116.5753 325° Northwest 385 443 40,000  Level Salt Lake Center
02:25AM 41.5486 -116.6528 325° Northwest 382 440 40,000  Level Salt Lake Center
02:26AM 41.6300 -116.7292 325° Northwest 376 433 40,000  Level Salt Lake Center
02:27AM 41.7256 -116.8178 325° Northwest 374 430 40,000  Level Salt Lake Center
02:28AM 41.8069 -116.8919 326° Northwest 373 429 40,000  Level Salt Lake Center
02:29AM 41.8867 -116.9661 325° Northwest 366 421 40,000  Level Salt Lake Center
02:30AM 41.9775 -117.0531 325° Northwest 361 415 40,000  Level Salt Lake Center
02:31AM 42.0567 -117.1267 325° Northwest 361 415 40,000  Level Salt Lake Center
02:32AM 42.1356 -117.2003 325° Northwest 360 414 40,000  Level Salt Lake Center
02:33AM 42.2256 -117.2875 324° Northwest 360 414 40,000  Level Salt Lake Center
02:34AM 42.2986 -117.3569 325° Northwest 357 411 40,000  Level Salt Lake Center
02:35AM 42.3897 -117.4436 325° Northwest 358 412 40,000  Level Salt Lake Center
02:37AM 42.4675 -117.5181 325° Northwest 357 411 40,000  Level Salt Lake Center
02:38AM 42.5458 -117.5931 325° Northwest 359 413 40,000  Level Salt Lake Center
02:39AM 42.6236 -117.6694 324° Northwest 359 413 40,000  Level Salt Lake Center
02:40AM 42.7119 -117.7553 324° Northwest 350 403 40,000  Level Salt Lake Center
02:41AM 42.7889 -117.8300 325° Northwest 353 406 40,000  Level Salt Lake Center
02:42AM 42.8653 -117.9047 324° Northwest 352 405 40,000  Level Salt Lake Center
02:43AM 42.9536 -117.9911 324° Northwest 350 403 40,000  Level Salt Lake Center
02:44AM 43.0294 -118.0661 324° Northwest 351 404 40,000  Level Salt Lake Center
02:45AM 43.1075 -118.1419 325° Northwest 357 411 40,000  Level Salt Lake Center
02:46AM 43.1839 -118.2178 324° Northwest 353 406 40,000  Level Salt Lake Center
02:47AM 43.2611 -118.2944 324° Northwest 355 409 40,000  Level Salt Lake Center
02:48AM 43.3408 -118.3731 324° Northwest 354 407 40,000  Level Salt Lake Center
02:49AM 43.4178 -118.4506 324° Northwest 346 398 40,000  Level Salt Lake Center
02:50AM 43.4944 -118.5253 325° Northwest 340 391 40,000  Level Salt Lake Center
02:51AM 43.5867 -118.6183 324° Northwest 343 395 40,000  Level Salt Lake Center
02:52AM 43.6639 -118.6969 324° Northwest 344 396 40,000  Level Salt Lake Center
02:53AM 43.7414 -118.7742 324° Northwest 343 395 40,000  Level Salt Lake Center
02:54AM 43.8172 -118.8517 324° Northwest 342 394 40,000  Level Salt Lake Center
02:55AM 43.8936 -118.9286 324° Northwest 339 390 40,000  Level Salt Lake Center
02:56AM 43.9717 -119.0092 323° Northwest 348 400 40,000  Level Salt Lake Center
02:57AM 44.0481 -119.0867 324° Northwest 343 395 40,000  Level Salt Lake Center
02:58AM 44.1250 -119.1661 323° Northwest 343 395 40,000  Level Salt Lake Center
02:59AM 44.2022 -119.2461 323° Northwest 346 398 40,000  Level Salt Lake Center
03:00AM 44.2950 -119.3408 324° Northwest 348 400 40,000  Level Seattle Center
03:01AM 44.3725 -119.4217 323° Northwest 349 402 40,000  Level Seattle Center
03:02AM 44.4522 -119.5044 323° Northwest 354 407 40,000  Level Seattle Center
03:03AM 44.5319 -119.5875 323° Northwest 358 412 40,000  Level Seattle Center
03:04AM 44.6125 -119.6728 323° Northwest 363 418 40,000  Level Seattle Center
03:05AM 44.7119 -119.7214 341° North 383 441 40,000  Level Seattle Center
03:06AM 44.8192 -119.7369 354° North 399 459 40,000  Level Seattle Center
03:07AM 44.9264 -119.7531 354° North 395 455 40,000  Level Seattle Center
03:08AM 45.0311 -119.7683 354° North 389 448 40,000  Level Seattle Center
03:09AM 45.1306 -119.8064 345° North 376 433 40,000  Level Seattle Center
03:10AM 45.2311 -119.8497 343° North 380 437 40,000  Level Seattle Center
03:11AM 45.3314 -119.8933 343° North 380 437 40,000  Level Seattle Center
03:12AM 45.4314 -119.9369 343° North 378 435 40,000  Level Seattle Center
03:13AM 45.5306 -119.9803 343° North 374 430 40,000  Level Seattle Center
03:14AM 45.6311 -120.0236 343° North 378 435 40,000  Level Seattle Center
03:15AM 45.7322 -120.0683 343° North 380 437 40,000  Level Seattle Center
03:16AM 45.8322 -120.1103 344° North 378 435 40,000  Level Seattle Center
03:17AM 45.9336 -120.1556 343° North 381 438 40,000  Level Seattle Center
03:18AM 46.0375 -120.2036 342° North 388 447 40,000  Level Seattle Center
03:19AM 46.1425 -120.2489 343° North 392 451 40,000  Level Seattle Center
03:20AM 46.2472 -120.2972 342° North 396 456 40,000  Level Seattle Center
03:21AM 46.3731 -120.3561 342° North 396 456 40,000  Level Seattle Center
03:22AM 46.4778 -120.4019 343° North 393 452 40,000  Level Seattle Center
03:23AM 46.5756 -120.4622 337° Northwest 386 444 40,000 -60 Level Seattle Center
03:24AM 46.6325 -120.5783 306° West 359 413 39,900 -1,260 Descending Seattle Center
03:25AM 46.6883 -120.7003 304° West 361 415 37,500 -2,700 Descending Seattle Center
03:26AM 46.7461 -120.8186 306° West 362 417 34,500 -2,700 Descending Seattle Center
03:27AM 46.8025 -120.9378 305° West 359 413 32,100 -2,340 Descending Seattle Center
03:28AM 46.8564 -121.0503 305° West 343 395 29,900 -2,220 Descending Seattle Center
03:29AM 46.9064 -121.1583 304° West 325 374 27,700 -2,100 Descending Seattle Center
03:30AM 46.9536 -121.2639 303° West 314 361 25,700 -2,100 Descending Seattle Center
03:31AM 46.9961 -121.3492 306° West 302 348 23,900 -2,160 Descending Seattle Center
03:32AM 47.0372 -121.4367 305° West 306 352 22,200 -1,740 Descending Seattle Center
03:32AM 47.0439 -121.4533 300° West 308 354 21,900 -1,980 Descending Seattle Center
03:33AM 47.0847 -121.5406 305° West 305 351 20,200 -2,100 Descending Seattle Center
03:33AM 47.0903 -121.5531 303° West 300 345 19,800 -1,920 Descending Seattle Center
03:34AM 47.1308 -121.6389 305° West 295 339 18,300 -2,040 Descending Seattle Center
03:34AM 47.1444 -121.6717 301° West 296 341 17,800 -1,800 Descending Seattle Center
03:35AM 47.1739 -121.7356 304° West 283 326 16,500 -2,100 Descending Seattle Center
03:35AM 47.1883 -121.7664 305° West 284 327 15,700 -1,500 Descending Seattle Center
03:36AM 47.2181 -121.8286 305° West 280 322 15,000 -720 Descending Seattle Center
03:36AM 47.2314 -121.8619 301° West 285 328 15,000 -300 Level Seattle Center
03:37AM 47.2611 -121.9256 305° West 283 326 14,700 -1,140 Descending Seattle Center
03:37AM 47.2756 -121.9558 305° West 281 323 13,900 -2,220 Descending Seattle Center
03:38AM 47.3072 -122.0275 303° West 283 326 12,500 -1,920 Descending Seattle Center
03:38AM 47.3189 -122.0517 305° West 282 325 12,000 -1,620 Descending Seattle Center
03:39AM 47.3494 -122.1219 303° West 275 316 10,900 -1,500 Descending Seattle Center
03:39AM 47.3603 -122.1425 308° West 271 312 10,500 -1,740 Descending Seattle Center
03:40AM 47.4058 -122.1858 327° Northwest 271 312 9,200 -1,740 Descending Seattle Center
03:40AM 47.4225 -122.1839 North 272 313 8,800 -1,500 Descending Seattle Center
03:41AM 47.4808 -122.1836 360° North 278 320 7,700 -1,440 Descending Seattle Center
03:41AM 47.4983 -122.1842 359° North 275 316 7,400 -1,500 Descending Seattle Center
03:42AM 47.5567 -122.1842 360° North 270 311 6,200 -1,620 Descending Seattle Center
03:42AM 47.5789 -122.1856 358° North 271 312 5,800 -1,320 Descending Seattle Center
03:43AM 47.6358 -122.1894 357° North 267 307 4,900 -1,140 Descending Seattle Center
03:43AM 47.6519 -122.1894 360° North 265 305 4,700 -720 Descending Seattle Center
03:44AM 47.6850 -122.2344 318° Northwest 242 278 4,200 -420 Descending Seattle Center
03:45AM 47.6653 -122.3147 250° West 198 228 4,000 -420 Descending Seattle Center
03:46AM 47.6144 -122.3067 174° South 170 196 3,400 -780 Descending Seattle Center
03:47AM 47.5656 -122.3072 180° South 174 200 2,500 -900 Descending Seattle Center
03:48AM 47.5261 -122.3094 182° South 128 147 1,700 -780 Descending Seattle Center
03:49AM 47.4906 -122.3094 180° South 121 139 1,000 -660 Descending Seattle Center
03:50AM 47.4544 -122.3094 180° South 130 150 400 -600 Descending Seattle Center
03:52AM 47.4499 -122.3118 306° West  Level Estimated